Time;durP1;ratioP1;P1;durP2;ratioP2;P2;SDS_P1;SDS_P2;PMS_P1;PMS_P2;Temp;Humidity;BMP_temperature;BMP_pressure;BME280_temperature;BME280_humidity;BME280_pressure;Samples;Min_cycle;Max_cycle;Signal;HPM_P1;HPM_P2
2022/01/11 00:00:40;;;;;;;41.45;30.23;;;;;;;;;;5118064;28;20592;-66
2022/01/11 00:03:09;;;;;;;45.35;30.02;;;;;;;;;;5116901;28;20217;-67
2022/01/11 00:05:41;;;;;;;39.88;29.85;;;;;;;;;;5117481;28;20272;-66
2022/01/11 00:08:10;;;;;;;37.33;29.77;;;;;;;;;;5118177;28;20178;-66
2022/01/11 00:10:47;;;;;;;38.28;28.65;;;;;;;;;;5118040;28;20185;-66
2022/01/11 00:13:15;;;;;;;37.50;28.35;;;;;;;;;;5117028;28;20243;-66
2022/01/11 00:15:42;;;;;;;47.00;31.02;;;;;;;;;;5116956;28;20275;-66
2022/01/11 00:18:11;;;;;;;50.78;31.05;;;;;;;;;;5117222;28;20276;-66
2022/01/11 00:20:38;;;;;;;41.05;29.10;;;;;;;;;;5117620;28;20271;-66
2022/01/11 00:25:51;;;;;;;51.53;30.45;;;;;;;;;;5117044;28;20196;-65
2022/01/11 00:28:19;;;;;;;43.63;29.38;;;;;;;;;;5117066;28;20574;-65
2022/01/11 00:30:48;;;;;;;41.80;31.60;;;;;;;;;;5116600;28;20276;-66
2022/01/11 00:33:20;;;;;;;42.75;32.28;;;;;;;;;;5116389;28;20219;-66
2022/01/11 00:35:58;;;;;;;42.25;30.98;;;;;;;;;;5117529;28;20205;-66
2022/01/11 00:38:26;;;;;;;40.53;30.38;;;;;;;;;;5116891;28;20551;-66
2022/01/11 00:40:55;;;;;;;43.13;32.47;;;;;;;;;;5116782;28;20224;-66
2022/01/11 00:43:23;;;;;;;48.85;31.60;;;;;;;;;;5116857;28;20192;-66
2022/01/11 00:45:51;;;;;;;41.67;31.15;;;;;;;;;;5116723;28;20592;-66
2022/01/11 00:48:19;;;;;;;43.08;31.70;;;;;;;;;;5116322;28;20203;-66
2022/01/11 00:50:48;;;;;;;48.13;31.30;;;;;;;;;;5116344;28;20656;-66
2022/01/11 00:53:15;;;;;;;56.70;34.83;;;;;;;;;;5116155;28;20209;-66
2022/01/11 00:55:42;;;;;;;46.78;30.70;;;;;;;;;;5117045;28;20310;-65
2022/01/11 00:58:09;;;;;;;44.25;33.30;;;;;;;;;;5116147;28;20203;-65
2022/01/11 01:00:37;;;;;;;44.25;31.52;;;;;;;;;;5116392;28;20306;-65
2022/01/11 01:03:04;;;;;;;48.95;31.33;;;;;;;;;;5115920;28;20303;-65
2022/01/11 01:05:33;;;;;;;46.03;31.77;;;;;;;;;;5116918;28;20675;-65
2022/01/11 01:08:01;;;;;;;44.85;32.33;;;;;;;;;;5115813;28;20275;-66
2022/01/11 01:10:35;;;;;;;45.60;30.65;;;;;;;;;;5115811;28;20288;-65
2022/01/11 01:13:04;;;;;;;56.25;32.97;;;;;;;;;;5116204;28;20558;-66
2022/01/11 01:15:34;;;;;;;48.20;31.17;;;;;;;;;;5115804;28;20713;-66
2022/01/11 01:18:01;;;;;;;50.15;32.15;;;;;;;;;;5116238;28;20242;-65
2022/01/11 01:20:28;;;;;;;48.17;31.35;;;;;;;;;;5115669;28;20283;-65
2022/01/11 01:22:57;;;;;;;42.33;31.20;;;;;;;;;;5115924;28;20231;-65
2022/01/11 01:25:24;;;;;;;48.17;29.42;;;;;;;;;;5115624;28;20189;-65
2022/01/11 01:27:53;;;;;;;44.70;29.25;;;;;;;;;;5116007;28;20220;-65
2022/01/11 01:30:21;;;;;;;38.97;28.40;;;;;;;;;;5115848;28;20188;-65
2022/01/11 01:32:49;;;;;;;46.10;31.20;;;;;;;;;;5115443;28;20224;-66
2022/01/11 01:35:17;;;;;;;39.75;30.20;;;;;;;;;;5116558;28;20186;-65
2022/01/11 01:37:45;;;;;;;46.85;32.33;;;;;;;;;;5115688;28;20688;-65
2022/01/11 01:40:17;;;;;;;47.72;32.63;;;;;;;;;;5115295;28;20215;-65
2022/01/11 01:42:44;;;;;;;41.30;30.65;;;;;;;;;;5115266;28;20267;-65
2022/01/11 01:45:12;;;;;;;45.25;31.27;;;;;;;;;;5115516;28;20186;-65
2022/01/11 01:47:39;;;;;;;45.38;31.58;;;;;;;;;;5115455;28;20280;-66
2022/01/11 01:50:08;;;;;;;40.45;31.33;;;;;;;;;;5115556;28;20279;-66
2022/01/11 01:52:35;;;;;;;54.60;33.45;;;;;;;;;;5115238;28;20254;-66
2022/01/11 01:55:03;;;;;;;41.83;29.58;;;;;;;;;;5116126;28;20189;-66
2022/01/11 01:57:31;;;;;;;46.67;31.08;;;;;;;;;;5115275;28;20191;-68
2022/01/11 01:59:58;;;;;;;45.45;31.58;;;;;;;;;;5114877;28;20283;-66
2022/01/11 02:02:26;;;;;;;48.42;33.70;;;;;;;;;;5114880;28;20229;-65
2022/01/11 02:04:54;;;;;;;53.92;33.95;;;;;;;;;;5115629;28;20263;-65
2022/01/11 02:07:21;;;;;;;48.97;31.92;;;;;;;;;;5115107;28;20336;-65
2022/01/11 02:09:48;;;;;;;59.38;33.10;;;;;;;;;;5114765;28;20191;-67
2022/01/11 02:12:16;;;;;;;54.05;33.42;;;;;;;;;;5115263;28;20551;-66
2022/01/11 02:14:44;;;;;;;52.47;35.15;;;;;;;;;;5114624;28;20284;-65
2022/01/11 02:17:12;;;;;;;50.50;33.63;;;;;;;;;;5114592;28;20224;-65
2022/01/11 02:19:39;;;;;;;51.67;32.40;;;;;;;;;;5114384;28;20279;-66
2022/01/11 02:22:07;;;;;;;50.28;31.70;;;;;;;;;;5114423;28;20228;-66
2022/01/11 02:24:35;;;;;;;53.70;30.50;;;;;;;;;;5114821;28;20276;-65
2022/01/11 02:27:02;;;;;;;41.05;31.15;;;;;;;;;;5115054;28;20190;-66
2022/01/11 02:29:29;;;;;;;43.70;29.95;;;;;;;;;;5115543;28;20279;-66
2022/01/11 02:31:57;;;;;;;46.92;30.35;;;;;;;;;;5114280;28;20304;-67
2022/01/11 02:34:24;;;;;;;48.63;30.38;;;;;;;;;;5114784;28;20276;-66
2022/01/11 02:36:51;;;;;;;52.83;31.45;;;;;;;;;;5114610;28;20600;-66
2022/01/11 02:39:20;;;;;;;44.42;31.27;;;;;;;;;;5114550;28;20287;-65
2022/01/11 02:41:51;;;;;;;50.78;31.77;;;;;;;;;;5114565;28;20224;-65
2022/01/11 02:44:18;;;;;;;59.80;29.88;;;;;;;;;;5114498;28;20538;-65
2022/01/11 02:46:45;;;;;;;48.25;30.38;;;;;;;;;;5114460;28;20197;-66
2022/01/11 02:49:13;;;;;;;47.65;29.67;;;;;;;;;;5114060;28;20289;-66
2022/01/11 02:51:40;;;;;;;50.15;30.30;;;;;;;;;;5114047;28;20222;-65
2022/01/11 02:54:07;;;;;;;47.20;31.20;;;;;;;;;;5113949;28;20308;-66
2022/01/11 02:56:36;;;;;;;38.88;27.85;;;;;;;;;;5114345;28;20190;-66
2022/01/11 02:59:04;;;;;;;49.97;29.10;;;;;;;;;;5114283;28;20284;-65
2022/01/11 03:01:31;;;;;;;43.15;28.73;;;;;;;;;;5114249;28;20284;-66
2022/01/11 03:03:59;;;;;;;45.42;28.52;;;;;;;;;;5114032;28;20319;-66
2022/01/11 03:06:26;;;;;;;41.95;28.80;;;;;;;;;;5113905;28;20231;-66
2022/01/11 03:08:53;;;;;;;42.90;29.45;;;;;;;;;;5114101;28;20276;-66
2022/01/11 03:11:23;;;;;;;36.90;27.23;;;;;;;;;;5113796;28;20275;-66
2022/01/11 03:13:52;;;;;;;45.72;30.35;;;;;;;;;;5114430;28;20205;-66
2022/01/11 03:16:19;;;;;;;50.63;30.17;;;;;;;;;;5114086;28;20196;-65
2022/01/11 03:18:47;;;;;;;46.65;29.45;;;;;;;;;;5114088;28;20587;-66
2022/01/11 03:21:15;;;;;;;52.85;30.77;;;;;;;;;;5113749;28;20195;-66
2022/01/11 03:23:43;;;;;;;51.58;30.65;;;;;;;;;;5114610;28;20551;-66
2022/01/11 03:26:10;;;;;;;43.70;28.40;;;;;;;;;;5113670;28;20283;-67
2022/01/11 03:28:37;;;;;;;40.60;27.63;;;;;;;;;;5113901;28;20185;-66
2022/01/11 03:31:06;;;;;;;50.60;29.40;;;;;;;;;;5113779;28;20188;-66
2022/01/11 03:33:33;;;;;;;44.22;29.88;;;;;;;;;;5118021;28;20307;-65
2022/01/11 03:36:01;;;;;;;46.30;28.52;;;;;;;;;;5118079;28;20184;-66
2022/01/11 03:38:30;;;;;;;42.30;28.17;;;;;;;;;;5118058;28;20279;-66
2022/01/11 03:40:57;;;;;;;45.58;30.52;;;;;;;;;;5117930;28;20189;-66
2022/01/11 03:43:26;;;;;;;48.58;30.88;;;;;;;;;;5117530;28;20287;-66
2022/01/11 03:45:53;;;;;;;44.58;29.33;;;;;;;;;;5118524;28;20189;-66
2022/01/11 03:48:22;;;;;;;44.53;29.92;;;;;;;;;;5118019;28;20279;-66
2022/01/11 03:50:53;;;;;;;39.30;27.33;;;;;;;;;;5118086;28;20630;-66
2022/01/11 03:53:23;;;;;;;42.65;28.83;;;;;;;;;;5117918;28;20204;-67
2022/01/11 03:56:11;;;;;;;45.20;30.67;;;;;;;;;;5118080;28;20181;-66
2022/01/11 03:58:39;;;;;;;48.45;30.65;;;;;;;;;;5118067;28;20514;-66
2022/01/11 04:01:06;;;;;;;45.00;31.17;;;;;;;;;;5117290;28;20279;-66
2022/01/11 04:03:36;;;;;;;47.35;28.67;;;;;;;;;;5117944;28;20263;-67
2022/01/11 04:06:03;;;;;;;52.35;31.42;;;;;;;;;;5120372;28;20231;-68
2022/01/11 04:08:30;;;;;;;51.75;30.77;;;;;;;;;;5117545;28;20598;-66
2022/01/11 04:10:58;;;;;;;56.13;29.92;;;;;;;;;;5117589;28;20271;-67
2022/01/11 04:13:25;;;;;;;43.67;29.58;;;;;;;;;;5117752;28;20315;-66
2022/01/11 04:15:52;;;;;;;51.72;31.70;;;;;;;;;;5117335;28;20196;-67
2022/01/11 04:18:19;;;;;;;55.47;29.10;;;;;;;;;;5117183;28;20224;-67
2022/01/11 04:20:48;;;;;;;41.38;28.10;;;;;;;;;;5117194;28;20273;-67
2022/01/11 04:23:15;;;;;;;46.28;28.48;;;;;;;;;;5117115;28;20295;-66
2022/01/11 04:25:42;;;;;;;49.03;31.05;;;;;;;;;;5117081;28;20284;-66
2022/01/11 04:28:10;;;;;;;47.05;28.33;;;;;;;;;;5116734;28;20193;-66
2022/01/11 04:30:37;;;;;;;42.63;28.17;;;;;;;;;;5117311;28;20273;-67
2022/01/11 04:33:05;;;;;;;44.25;29.30;;;;;;;;;;5116670;28;20222;-66
2022/01/11 04:35:33;;;;;;;44.63;28.65;;;;;;;;;;5117153;28;20196;-67
2022/01/11 04:38:01;;;;;;;49.33;30.23;;;;;;;;;;5117352;28;20185;-67
2022/01/11 04:40:28;;;;;;;45.38;29.50;;;;;;;;;;5116799;28;20283;-67
2022/01/11 04:42:56;;;;;;;50.20;28.98;;;;;;;;;;5116307;28;20283;-68
2022/01/11 04:45:23;;;;;;;48.65;29.75;;;;;;;;;;5116925;28;20195;-68
2022/01/11 04:47:56;;;;;;;51.00;31.10;;;;;;;;;;5117178;28;20189;-68
2022/01/11 04:50:23;;;;;;;55.40;30.75;;;;;;;;;;5116790;28;20593;-68
2022/01/11 04:52:51;;;;;;;57.38;32.60;;;;;;;;;;5116465;28;20303;-66
2022/01/11 04:55:20;;;;;;;49.47;30.98;;;;;;;;;;5116537;28;20194;-66
2022/01/11 04:57:47;;;;;;;50.10;30.98;;;;;;;;;;5116479;28;20204;-66
2022/01/11 05:00:15;;;;;;;47.00;31.33;;;;;;;;;;5116693;28;20279;-66
2022/01/11 05:02:42;;;;;;;45.33;31.55;;;;;;;;;;5115405;28;20272;-66
2022/01/11 05:05:10;;;;;;;53.90;31.15;;;;;;;;;;5115603;28;20488;-66
2022/01/11 05:07:37;;;;;;;50.40;31.38;;;;;;;;;;5116131;28;20193;-66
2022/01/11 05:10:05;;;;;;;52.63;31.33;;;;;;;;;;5115934;28;20232;-66
2022/01/11 05:12:34;;;;;;;43.15;28.33;;;;;;;;;;5115372;28;20248;-66
2022/01/11 05:15:01;;;;;;;47.28;30.58;;;;;;;;;;5115252;28;20185;-66
2022/01/11 05:17:29;;;;;;;46.53;29.38;;;;;;;;;;5115452;28;20196;-67
2022/01/11 05:19:56;;;;;;;45.78;28.60;;;;;;;;;;5115685;28;20205;-66
2022/01/11 05:22:23;;;;;;;45.13;28.52;;;;;;;;;;5115609;28;20242;-66
2022/01/11 05:24:50;;;;;;;53.97;29.85;;;;;;;;;;5115430;28;20649;-67
2022/01/11 05:27:18;;;;;;;52.53;32.13;;;;;;;;;;5115176;28;20228;-67
2022/01/11 05:29:46;;;;;;;47.53;29.77;;;;;;;;;;5115902;28;20275;-66
2022/01/11 05:32:13;;;;;;;43.20;28.00;;;;;;;;;;5115934;28;20268;-66
2022/01/11 05:34:41;;;;;;;45.70;29.90;;;;;;;;;;5116168;28;20219;-65
2022/01/11 05:37:08;;;;;;;52.85;29.33;;;;;;;;;;5115760;28;20251;-66
2022/01/11 05:39:36;;;;;;;43.08;28.02;;;;;;;;;;5115661;28;20189;-66
2022/01/11 05:42:06;;;;;;;42.88;29.65;;;;;;;;;;5115258;28;20197;-66
2022/01/11 05:44:33;;;;;;;51.38;31.80;;;;;;;;;;5115399;28;20200;-66
2022/01/11 05:47:02;;;;;;;42.85;29.75;;;;;;;;;;5115068;28;20530;-66
2022/01/11 05:49:29;;;;;;;47.00;30.30;;;;;;;;;;5115418;28;20224;-67
2022/01/11 05:51:56;;;;;;;57.10;32.08;;;;;;;;;;5115440;28;20605;-66
2022/01/11 05:54:24;;;;;;;52.15;32.08;;;;;;;;;;5114715;28;20299;-66
2022/01/11 05:56:51;;;;;;;52.42;33.60;;;;;;;;;;5114130;28;20276;-66
2022/01/11 05:59:18;;;;;;;54.60;35.03;;;;;;;;;;5115167;28;20284;-66
2022/01/11 06:01:45;;;;;;;65.15;36.33;;;;;;;;;;5115061;28;20597;-67
2022/01/11 06:04:14;;;;;;;60.53;37.17;;;;;;;;;;5115102;28;20315;-66
2022/01/11 06:06:41;;;;;;;63.53;39.45;;;;;;;;;;5114279;28;20280;-67
2022/01/11 06:09:08;;;;;;;70.97;40.80;;;;;;;;;;5114725;28;20238;-67
2022/01/11 06:11:36;;;;;;;66.07;42.08;;;;;;;;;;5115093;28;20288;-66
2022/01/11 06:14:03;;;;;;;71.47;43.47;;;;;;;;;;5114844;28;20217;-66
2022/01/11 06:16:30;;;;;;;74.15;44.92;;;;;;;;;;5114458;28;20195;-66
2022/01/11 06:18:57;;;;;;;72.43;42.30;;;;;;;;;;5114795;28;20280;-66
2022/01/11 06:21:26;;;;;;;69.60;40.75;;;;;;;;;;5114344;28;20275;-66
2022/01/11 06:23:53;;;;;;;57.13;38.17;;;;;;;;;;5114150;28;20203;-66
2022/01/11 06:26:20;;;;;;;68.10;40.35;;;;;;;;;;5114338;28;20224;-66
2022/01/11 06:28:47;;;;;;;58.28;38.75;;;;;;;;;;5114156;28;20192;-66
2022/01/11 06:31:15;;;;;;;59.78;37.17;;;;;;;;;;5114545;28;20280;-66
2022/01/11 06:33:42;;;;;;;59.20;33.58;;;;;;;;;;5114569;28;20295;-66
2022/01/11 06:36:11;;;;;;;71.70;35.95;;;;;;;;;;5114242;28;20272;-66
2022/01/11 06:38:41;;;;;;;56.08;34.63;;;;;;;;;;5113475;28;20188;-65
2022/01/11 06:41:08;;;;;;;62.35;36.45;;;;;;;;;;5114357;28;20600;-65
2022/01/11 06:43:35;;;;;;;53.30;35.28;;;;;;;;;;5113951;28;20203;-72
2022/01/11 06:46:02;;;;;;;55.78;36.15;;;;;;;;;;5114869;28;20279;-66
2022/01/11 06:48:30;;;;;;;66.57;37.20;;;;;;;;;;5114998;28;20337;-67
2022/01/11 06:50:57;;;;;;;57.60;32.55;;;;;;;;;;5114252;28;20231;-66
2022/01/11 06:53:24;;;;;;;58.08;36.15;;;;;;;;;;5114126;28;20550;-66
2022/01/11 06:55:54;;;;;;;64.35;37.55;;;;;;;;;;5113808;28;20268;-67
2022/01/11 06:58:22;;;;;;;60.60;36.88;;;;;;;;;;5113887;28;20198;-65
2022/01/11 07:00:49;;;;;;;61.03;36.08;;;;;;;;;;5113949;28;20220;-66
2022/01/11 07:03:19;;;;;;;55.80;35.40;;;;;;;;;;5113707;28;20224;-66
2022/01/11 07:05:51;;;;;;;54.58;35.30;;;;;;;;;;5114115;28;20622;-66
2022/01/11 07:08:19;;;;;;;51.50;33.08;;;;;;;;;;5113509;28;20224;-67
2022/01/11 07:10:47;;;;;;;63.72;34.70;;;;;;;;;;5113834;28;20223;-66
2022/01/11 07:13:17;;;;;;;63.97;33.90;;;;;;;;;;5113824;28;20185;-66
2022/01/11 07:15:46;;;;;;;53.58;33.78;;;;;;;;;;5113647;28;20280;-66
2022/01/11 07:18:14;;;;;;;50.17;33.30;;;;;;;;;;5113549;28;20233;-66
2022/01/11 07:20:43;;;;;;;54.45;32.15;;;;;;;;;;5113549;28;20279;-66
2022/01/11 07:23:13;;;;;;;47.17;33.08;;;;;;;;;;5113846;28;20216;-66
2022/01/11 07:25:41;;;;;;;54.05;32.25;;;;;;;;;;5113669;28;20209;-67
2022/01/11 07:28:11;;;;;;;45.25;31.23;;;;;;;;;;5113561;28;20708;-66
2022/01/11 07:30:40;;;;;;;51.17;34.10;;;;;;;;;;5113880;28;20640;-65
2022/01/11 07:33:08;;;;;;;47.72;29.92;;;;;;;;;;5114356;28;20216;-65
2022/01/11 07:35:37;;;;;;;49.00;30.67;;;;;;;;;;5113339;28;20261;-67
2022/01/11 07:38:14;;;;;;;42.60;28.83;;;;;;;;;;5114206;28;20220;-65
2022/01/11 07:40:48;;;;;;;47.92;30.25;;;;;;;;;;5113722;28;20187;-66
2022/01/11 07:43:17;;;;;;;39.88;27.88;;;;;;;;;;5113641;28;20181;-66
2022/01/11 07:45:46;;;;;;;39.03;26.65;;;;;;;;;;5113608;28;20280;-66
2022/01/11 07:48:18;;;;;;;41.72;26.25;;;;;;;;;;5113351;28;20284;-66
2022/01/11 07:50:46;;;;;;;40.92;25.00;;;;;;;;;;5114239;28;20678;-65
2022/01/11 07:53:17;;;;;;;40.92;26.00;;;;;;;;;;5113776;28;20196;-66
2022/01/11 07:55:45;;;;;;;42.95;26.40;;;;;;;;;;5113274;28;20184;-66
2022/01/11 07:58:12;;;;;;;38.58;24.60;;;;;;;;;;5113343;28;20337;-66
2022/01/11 08:00:40;;;;;;;43.17;26.55;;;;;;;;;;5113492;28;20227;-66
2022/01/11 08:03:08;;;;;;;35.03;24.17;;;;;;;;;;5113277;28;20216;-65
2022/01/11 08:05:36;;;;;;;43.08;24.05;;;;;;;;;;5113483;28;20281;-65
2022/01/11 08:08:04;;;;;;;41.50;25.45;;;;;;;;;;5113736;28;20197;-66
2022/01/11 08:10:31;;;;;;;33.40;22.80;;;;;;;;;;5113106;28;20283;-65
2022/01/11 08:13:02;;;;;;;39.25;22.05;;;;;;;;;;5113285;28;20220;-66
2022/01/11 08:15:32;;;;;;;50.88;23.67;;;;;;;;;;5113487;28;20205;-66
2022/01/11 08:18:01;;;;;;;32.80;21.20;;;;;;;;;;5113068;28;20193;-65
2022/01/11 08:20:30;;;;;;;38.25;21.33;;;;;;;;;;5116604;28;20208;-65
2022/01/11 08:22:58;;;;;;;34.05;20.70;;;;;;;;;;5116643;28;20284;-65
2022/01/11 08:25:26;;;;;;;35.70;21.02;;;;;;;;;;5116829;28;20231;-66
2022/01/11 08:27:53;;;;;;;29.10;19.13;;;;;;;;;;5116951;28;20275;-66
2022/01/11 08:30:21;;;;;;;39.20;18.83;;;;;;;;;;5116545;28;20235;-65
2022/01/11 08:32:48;;;;;;;24.00;17.95;;;;;;;;;;5116670;28;20185;-66
2022/01/11 08:35:15;;;;;;;30.80;19.20;;;;;;;;;;5116816;28;20322;-66
2022/01/11 08:37:44;;;;;;;35.33;17.92;;;;;;;;;;5116435;28;20225;-66
2022/01/11 08:40:14;;;;;;;30.50;19.00;;;;;;;;;;5116934;28;20193;-65
2022/01/11 08:42:41;;;;;;;27.98;19.15;;;;;;;;;;5116336;28;20280;-65
2022/01/11 08:45:09;;;;;;;28.70;18.80;;;;;;;;;;5116644;28;20610;-66
2022/01/11 08:47:38;;;;;;;29.15;17.13;;;;;;;;;;5116736;28;20281;-66
2022/01/11 08:50:07;;;;;;;28.00;20.25;;;;;;;;;;5116201;28;20280;-66
2022/01/11 08:52:34;;;;;;;27.38;17.52;;;;;;;;;;5116619;28;20279;-67
2022/01/11 08:55:03;;;;;;;29.95;19.15;;;;;;;;;;5116656;28;20558;-66
2022/01/11 08:57:30;;;;;;;31.02;20.63;;;;;;;;;;5116099;28;20197;-66
2022/01/11 08:59:57;;;;;;;31.90;18.08;;;;;;;;;;5115970;28;20224;-66
2022/01/11 09:02:24;;;;;;;30.15;17.20;;;;;;;;;;5116103;28;20193;-66
2022/01/11 09:04:53;;;;;;;28.73;19.25;;;;;;;;;;5116960;28;20289;-66
2022/01/11 09:07:20;;;;;;;26.85;17.60;;;;;;;;;;5117311;28;20198;-67
2022/01/11 09:09:48;;;;;;;27.10;16.17;;;;;;;;;;5117060;28;20196;-66
2022/01/11 09:12:19;;;;;;;26.08;15.93;;;;;;;;;;5116363;28;20224;-66
2022/01/11 09:14:46;;;;;;;24.75;15.57;;;;;;;;;;5117236;28;20206;-66
2022/01/11 09:17:14;;;;;;;22.30;16.75;;;;;;;;;;5116430;28;20193;-67
2022/01/11 09:19:41;;;;;;;25.98;16.90;;;;;;;;;;5116067;28;20220;-65
2022/01/11 09:22:10;;;;;;;20.48;15.73;;;;;;;;;;5115772;28;20646;-66
2022/01/11 09:24:38;;;;;;;24.25;14.90;;;;;;;;;;5115799;28;20280;-66
2022/01/11 09:27:05;;;;;;;24.38;15.70;;;;;;;;;;5115913;28;20221;-66
2022/01/11 09:29:36;;;;;;;27.58;17.92;;;;;;;;;;5115503;28;20198;-67
2022/01/11 09:32:04;;;;;;;21.70;14.80;;;;;;;;;;5116334;28;20185;-67
2022/01/11 09:34:32;;;;;;;22.88;15.32;;;;;;;;;;5116901;28;20248;-66
2022/01/11 09:36:59;;;;;;;24.25;16.58;;;;;;;;;;5115699;28;20244;-66
2022/01/11 09:39:27;;;;;;;24.63;15.35;;;;;;;;;;5118044;28;20231;-66
2022/01/11 09:41:58;;;;;;;22.40;15.82;;;;;;;;;;5117878;28;20237;-66
2022/01/11 09:44:26;;;;;;;26.23;14.00;;;;;;;;;;5117826;28;20186;-66
2022/01/11 09:46:55;;;;;;;18.60;14.40;;;;;;;;;;5118114;28;20224;-66
2022/01/11 09:49:22;;;;;;;24.75;15.68;;;;;;;;;;5117364;28;20185;-65
2022/01/11 09:51:49;;;;;;;24.60;16.75;;;;;;;;;;5117728;28;20224;-66
2022/01/11 09:54:19;;;;;;;22.27;15.35;;;;;;;;;;5117549;28;20241;-66
2022/01/11 09:56:46;;;;;;;20.15;13.85;;;;;;;;;;5117772;28;20203;-67
2022/01/11 09:59:14;;;;;;;21.20;14.32;;;;;;;;;;5117345;28;20191;-66
2022/01/11 10:01:41;;;;;;;18.35;12.70;;;;;;;;;;5116710;28;20282;-67
2022/01/11 10:04:11;;;;;;;21.77;13.57;;;;;;;;;;5117425;28;20692;-66
2022/01/11 10:06:42;;;;;;;18.95;13.02;;;;;;;;;;5118356;28;20189;-66
2022/01/11 10:09:13;;;;;;;21.27;14.57;;;;;;;;;;5119134;28;20179;-66
2022/01/11 10:11:41;;;;;;;16.40;13.68;;;;;;;;;;5118989;28;20224;-66
2022/01/11 10:14:18;;;;;;;21.73;14.32;;;;;;;;;;5117199;28;20236;-68
2022/01/11 10:16:46;;;;;;;21.85;13.45;;;;;;;;;;5115953;28;20220;-67
2022/01/11 10:19:22;;;;;;;21.48;13.05;;;;;;;;;;5115379;28;20234;-66
2022/01/11 10:21:51;;;;;;;19.98;13.60;;;;;;;;;;5114781;28;20182;-66
2022/01/11 10:24:25;;;;;;;18.48;12.77;;;;;;;;;;5114397;28;20193;-66
2022/01/11 10:26:53;;;;;;;16.25;12.43;;;;;;;;;;5114469;28;20596;-66
2022/01/11 10:29:28;;;;;;;20.27;13.77;;;;;;;;;;5114530;28;20186;-66
2022/01/11 10:31:56;;;;;;;23.73;14.00;;;;;;;;;;5114268;28;20176;-67
2022/01/11 10:34:29;;;;;;;24.77;12.73;;;;;;;;;;5114652;28;20282;-66
2022/01/11 10:36:56;;;;;;;20.73;13.15;;;;;;;;;;5114227;28;20226;-66
2022/01/11 10:39:29;;;;;;;18.55;12.88;;;;;;;;;;5114621;28;20228;-67
2022/01/11 10:41:57;;;;;;;27.35;12.80;;;;;;;;;;5113614;28;20688;-67
2022/01/11 10:44:43;;;;;;;19.30;12.77;;;;;;;;;;5114854;28;20189;-67
2022/01/11 10:47:11;;;;;;;17.10;12.18;;;;;;;;;;5113987;28;20225;-66
2022/01/11 10:49:39;;;;;;;24.50;13.35;;;;;;;;;;5114987;28;20281;-66
2022/01/11 10:52:16;;;;;;;14.23;10.20;;;;;;;;;;5114306;28;20199;-66
2022/01/11 10:54:43;;;;;;;20.90;11.63;;;;;;;;;;5114769;28;20262;-67
2022/01/11 10:57:15;;;;;;;16.88;11.45;;;;;;;;;;5118502;28;20185;-66
2022/01/11 10:59:42;;;;;;;19.33;10.68;;;;;;;;;;5117372;28;20217;-68
2022/01/11 11:02:13;;;;;;;18.58;11.23;;;;;;;;;;5115924;28;20194;-67
2022/01/11 11:04:41;;;;;;;17.48;10.93;;;;;;;;;;5115111;28;20339;-67
2022/01/11 11:07:13;;;;;;;17.27;10.98;;;;;;;;;;5113922;28;20592;-67
2022/01/11 11:09:50;;;;;;;16.90;10.95;;;;;;;;;;5113896;28;20191;-67
2022/01/11 11:12:18;;;;;;;19.15;10.23;;;;;;;;;;5113769;28;20631;-67
2022/01/11 11:14:48;;;;;;;14.85;10.48;;;;;;;;;;5113873;28;20305;-67
2022/01/11 11:17:26;;;;;;;15.07;10.88;;;;;;;;;;5114210;28;20179;-67
2022/01/11 11:20:00;;;;;;;15.00;10.30;;;;;;;;;;5113670;28;20270;-68
2022/01/11 11:22:28;;;;;;;13.48;8.80;;;;;;;;;;5113702;28;20271;-67
2022/01/11 11:24:55;;;;;;;22.58;12.23;;;;;;;;;;5113725;28;20240;-67
2022/01/11 11:27:24;;;;;;;17.50;9.88;;;;;;;;;;5113555;28;20276;-67
2022/01/11 11:29:53;;;;;;;16.35;9.90;;;;;;;;;;5113764;28;20194;-67
2022/01/11 11:32:22;;;;;;;16.25;10.10;;;;;;;;;;5113218;28;20276;-68
2022/01/11 11:34:52;;;;;;;11.95;9.30;;;;;;;;;;5113254;28;20306;-67
2022/01/11 11:37:23;;;;;;;16.63;10.18;;;;;;;;;;5113624;28;20193;-67
2022/01/11 11:39:57;;;;;;;12.52;9.52;;;;;;;;;;5114677;28;20210;-68
2022/01/11 11:42:25;;;;;;;14.75;10.40;;;;;;;;;;5113937;28;20212;-67
2022/01/11 11:44:52;;;;;;;14.45;10.63;;;;;;;;;;5114033;28;20198;-67
2022/01/11 11:47:30;;;;;;;17.42;9.00;;;;;;;;;;5114473;28;20221;-68
2022/01/11 11:49:58;;;;;;;15.65;9.20;;;;;;;;;;5115077;28;20198;-68
2022/01/11 11:52:29;;;;;;;14.57;9.43;;;;;;;;;;5116118;28;20234;-68
2022/01/11 11:54:57;;;;;;;17.83;9.07;;;;;;;;;;5121164;28;20216;-68
2022/01/11 11:57:25;;;;;;;13.13;9.50;;;;;;;;;;5119121;28;20190;-68
2022/01/11 11:59:54;;;;;;;16.23;10.27;;;;;;;;;;5121503;28;20236;-68
2022/01/11 12:02:31;;;;;;;14.98;9.80;;;;;;;;;;5120710;28;20273;-68
2022/01/11 12:04:59;;;;;;;19.75;9.55;;;;;;;;;;5121970;28;20228;-68
2022/01/11 12:07:33;;;;;;;16.23;8.20;;;;;;;;;;5122280;28;20247;-68
2022/01/11 12:10:01;;;;;;;18.50;11.45;;;;;;;;;;5121404;28;20685;-69
2022/01/11 12:12:42;;;;;;;15.07;9.05;;;;;;;;;;5121075;28;20190;-68
2022/01/11 12:15:33;;;;;;;13.55;8.90;;;;;;;;;;5120461;28;20234;-68
2022/01/11 12:18:13;;;;;;;14.40;9.65;;;;;;;;;;5120913;28;20196;-69
2022/01/11 12:20:52;;;;;;;16.98;9.23;;;;;;;;;;5121348;28;20704;-69
2022/01/11 12:23:43;;;;;;;13.40;8.55;;;;;;;;;;5120858;28;20228;-69
2022/01/11 12:26:14;;;;;;;13.52;8.00;;;;;;;;;;5120837;28;20231;-68
2022/01/11 12:28:41;;;;;;;14.50;8.55;;;;;;;;;;5121533;28;20180;-70
2022/01/11 12:31:25;;;;;;;12.60;8.90;;;;;;;;;;5120983;28;20186;-69
2022/01/11 12:33:52;;;;;;;12.32;8.73;;;;;;;;;;5120786;28;20627;-69
2022/01/11 12:36:19;;;;;;;21.65;9.05;;;;;;;;;;5120734;28;20213;-69
2022/01/11 12:39:02;;;;;;;12.80;9.10;;;;;;;;;;5121503;28;20232;-69
2022/01/11 12:41:30;;;;;;;19.38;9.13;;;;;;;;;;5117564;28;20190;-69
2022/01/11 12:44:13;;;;;;;13.18;8.50;;;;;;;;;;5116949;28;20290;-70
2022/01/11 12:46:50;;;;;;;12.32;8.02;;;;;;;;;;5116767;28;20192;-69
2022/01/11 12:49:17;;;;;;;9.98;7.45;;;;;;;;;;5116957;28;20529;-69
2022/01/11 12:51:51;;;;;;;15.05;8.68;;;;;;;;;;5116700;28;20233;-68
2022/01/11 12:54:28;;;;;;;11.18;6.63;;;;;;;;;;5116884;28;20177;-69
2022/01/11 12:56:57;;;;;;;11.35;8.05;;;;;;;;;;5116725;28;20205;-69
2022/01/11 12:59:27;;;;;;;15.20;9.02;;;;;;;;;;5117335;28;20190;-69
2022/01/11 13:02:09;;;;;;;12.48;7.13;;;;;;;;;;5116965;28;20198;-69
2022/01/11 13:04:38;;;;;;;13.40;8.60;;;;;;;;;;5116620;28;20231;-69
2022/01/11 13:07:12;;;;;;;13.73;9.70;;;;;;;;;;5116463;28;20594;-69
2022/01/11 13:09:40;;;;;;;11.35;8.70;;;;;;;;;;5116021;28;20270;-69
2022/01/11 13:12:08;;;;;;;14.45;8.75;;;;;;;;;;5116067;28;20230;-69
2022/01/11 13:14:40;;;;;;;16.50;7.88;;;;;;;;;;5116140;28;20237;-69
2022/01/11 13:17:08;;;;;;;12.25;7.43;;;;;;;;;;5116214;28;20289;-69
2022/01/11 13:19:40;;;;;;;11.13;7.22;;;;;;;;;;5116093;28;20191;-74
2022/01/11 13:22:08;;;;;;;13.68;8.57;;;;;;;;;;5116153;28;20187;-70
2022/01/11 13:24:39;;;;;;;13.65;7.68;;;;;;;;;;5115948;28;20242;-70
2022/01/11 13:27:11;;;;;;;17.63;8.10;;;;;;;;;;5116190;28;20220;-69
2022/01/11 13:29:39;;;;;;;12.80;9.95;;;;;;;;;;5116755;28;20180;-69
2022/01/11 13:32:06;;;;;;;12.32;8.55;;;;;;;;;;5114852;28;20289;-69
2022/01/11 13:34:34;;;;;;;10.88;7.90;;;;;;;;;;5115317;28;20273;-68
2022/01/11 13:37:01;;;;;;;10.00;8.57;;;;;;;;;;5114790;28;20308;-69
2022/01/11 13:39:34;;;;;;;11.07;9.00;;;;;;;;;;5115257;28;20605;-69
2022/01/11 13:42:03;;;;;;;15.02;9.50;;;;;;;;;;5115335;28;20269;-68
2022/01/11 13:44:35;;;;;;;11.38;8.00;;;;;;;;;;5115173;28;20226;-68
2022/01/11 13:47:04;;;;;;;17.73;9.15;;;;;;;;;;5115700;28;20528;-68
2022/01/11 13:49:33;;;;;;;17.30;8.90;;;;;;;;;;5115059;28;20645;-68
2022/01/11 13:52:02;;;;;;;14.88;9.07;;;;;;;;;;5114845;28;20232;-68
2022/01/11 13:54:31;;;;;;;13.77;9.05;;;;;;;;;;5115373;28;20192;-69
2022/01/11 13:56:59;;;;;;;12.77;9.05;;;;;;;;;;5114760;28;20224;-68
2022/01/11 13:59:29;;;;;;;13.73;8.52;;;;;;;;;;5115188;28;20195;-68
2022/01/11 14:02:06;;;;;;;14.32;8.55;;;;;;;;;;5114700;28;20197;-69
2022/01/11 14:04:36;;;;;;;14.00;7.90;;;;;;;;;;5115128;28;20260;-68
2022/01/11 14:07:11;;;;;;;16.63;9.63;;;;;;;;;;5114802;28;20269;-68
2022/01/11 14:09:48;;;;;;;18.70;9.55;;;;;;;;;;5115351;28;20175;-67
2022/01/11 14:12:24;;;;;;;13.80;8.95;;;;;;;;;;5116228;28;20191;-68
2022/01/11 14:14:58;;;;;;;12.90;9.05;;;;;;;;;;5115620;28;20181;-69
2022/01/11 14:17:28;;;;;;;18.40;9.73;;;;;;;;;;5113736;28;20221;-68
2022/01/11 14:19:58;;;;;;;18.27;9.75;;;;;;;;;;5115078;28;20195;-68
2022/01/11 14:22:37;;;;;;;20.55;9.13;;;;;;;;;;5114552;28;20231;-68
2022/01/11 14:25:05;;;;;;;14.55;9.65;;;;;;;;;;5114938;28;20587;-67
2022/01/11 14:27:33;;;;;;;11.63;9.60;;;;;;;;;;5114375;28;20195;-68
2022/01/11 14:30:02;;;;;;;13.18;10.23;;;;;;;;;;5114323;28;20221;-68
2022/01/11 14:32:31;;;;;;;17.35;9.35;;;;;;;;;;5114282;28;20268;-67